Time;durP1;ratioP1;P1;durP2;ratioP2;P2;SDS_P1;SDS_P2;PMS_P1;PMS_P2;Temp;Humidity;BMP_temperature;BMP_pressure;BME280_temperature;BME280_humidity;BME280_pressure;Samples;Min_cycle;Max_cycle;Signal;HPM_P1;HPM_P2
2022/02/14 00:00:44;;;;;;;;;;;9.30;99.90;;;;;;5054775;28;20331;-82
2022/02/14 00:03:10;;;;;;;;;;;9.30;99.90;;;;;;5036245;28;20593;-83
2022/02/14 00:05:35;;;;;;;;;;;9.30;99.90;;;;;;5036987;28;19963;-81
2022/02/14 00:08:01;;;;;;;;;;;9.30;99.90;;;;;;5037255;28;20227;-81
2022/02/14 00:10:27;;;;;;;;;;;9.30;99.90;;;;;;5053846;28;19974;-81
2022/02/14 00:12:52;;;;;;;;;;;9.30;99.90;;;;;;5037192;28;19912;-84
2022/02/14 00:15:18;;;;;;;;;;;9.30;99.90;;;;;;5031873;28;19913;-81
2022/02/14 00:17:44;;;;;;;;;;;9.30;99.90;;;;;;5034618;28;19956;-82
2022/02/14 00:20:10;;;;;;;;;;;9.30;99.90;;;;;;5054665;28;19913;-83
2022/02/14 00:22:36;;;;;;;;;;;9.20;99.90;;;;;;5036833;28;20003;-80
2022/02/14 00:25:02;;;;;;;;;;;9.30;99.90;;;;;;5037442;28;19995;-81
2022/02/14 00:27:28;;;;;;;;;;;9.30;99.90;;;;;;5037410;28;19913;-80
2022/02/14 00:29:53;;;;;;;;;;;9.30;99.90;;;;;;5058910;28;19916;-82
2022/02/14 00:32:22;;;;;;;;;;;9.30;99.90;;;;;;5059071;28;20012;-81
2022/02/14 00:34:51;;;;;;;;;;;9.20;99.90;;;;;;5041585;28;20308;-80
2022/02/14 00:37:17;;;;;;;;;;;9.20;99.90;;;;;;5067256;28;19929;-81
2022/02/14 00:39:43;;;;;;;;;;;9.20;99.90;;;;;;5050438;28;19935;-81
2022/02/14 00:42:09;;;;;;;;;;;9.10;99.90;;;;;;5066043;28;19920;-83
2022/02/14 00:44:35;;;;;;;;;;;9.10;99.90;;;;;;5059321;28;19940;-80
2022/02/14 00:47:00;;;;;;;;;;;9.10;99.90;;;;;;5042397;28;19912;-81
2022/02/14 00:49:26;;;;;;;;;;;9.00;99.90;;;;;;5069457;28;20327;-83
2022/02/14 00:51:51;;;;;;;;;;;9.00;99.90;;;;;;5041041;28;19965;-83
2022/02/14 00:54:17;;;;;;;;;;;9.00;99.90;;;;;;5058733;28;19916;-81
2022/02/14 00:56:42;;;;;;;;;;;9.00;99.90;;;;;;5062784;28;19964;-83
2022/02/14 00:59:08;;;;;;;;;;;9.00;99.90;;;;;;5041162;28;19909;-82
2022/02/14 01:01:34;;;;;;;;;;;9.00;99.90;;;;;;5040746;28;19959;-82
2022/02/14 01:03:59;;;;;;;;;;;9.00;99.90;;;;;;5038719;28;19913;-83
2022/02/14 01:06:26;;;;;;;;;;;9.10;99.90;;;;;;5064101;28;19913;-82
2022/02/14 01:08:52;;;;;;;;;;;9.20;99.90;;;;;;5054793;28;20023;-82
2022/02/14 01:11:18;;;;;;;;;;;9.20;99.90;;;;;;5068026;28;19916;-80
2022/02/14 01:13:44;;;;;;;;;;;9.10;99.90;;;;;;5041291;28;19917;-83
2022/02/14 01:16:09;;;;;;;;;;;9.10;99.90;;;;;;5073388;28;19919;-82
2022/02/14 01:18:35;;;;;;;;;;;9.20;99.90;;;;;;5067026;28;20307;-80
2022/02/14 01:21:00;;;;;;;;;;;9.20;99.90;;;;;;5053628;28;19967;-84
2022/02/14 01:23:29;;;;;;;;;;;9.30;99.90;;;;;;5057014;28;20184;-84
2022/02/14 01:25:54;;;;;;;;;;;9.30;99.90;;;;;;5049423;28;19991;-83
2022/02/14 01:28:20;;;;;;;;;;;9.30;99.90;;;;;;5048552;28;19912;-81
2022/02/14 01:30:45;;;;;;;;;;;9.30;99.90;;;;;;5093767;28;20034;-84
2022/02/14 01:33:11;;;;;;;;;;;9.30;99.90;;;;;;5093829;28;19912;-83
2022/02/14 01:35:37;;;;;;;;;;;9.30;99.90;;;;;;5050574;28;19920;-80
2022/02/14 01:38:04;;;;;;;;;;;9.30;99.90;;;;;;5060751;28;19928;-83
2022/02/14 01:40:29;;;;;;;;;;;9.30;99.90;;;;;;5060378;28;19940;-83
2022/02/14 01:42:55;;;;;;;;;;;9.30;99.90;;;;;;5060466;28;20312;-84
2022/02/14 01:45:20;;;;;;;;;;;9.30;99.90;;;;;;5060226;28;19952;-85
2022/02/14 01:47:46;;;;;;;;;;;9.30;99.90;;;;;;5060690;28;19919;-84
2022/02/14 01:50:13;;;;;;;;;;;9.30;99.90;;;;;;5082880;28;19908;-83
2022/02/14 01:52:39;;;;;;;;;;;9.30;99.90;;;;;;5063598;28;19963;-84
2022/02/14 01:55:05;;;;;;;;;;;9.30;99.90;;;;;;5060128;28;19913;-83
2022/02/14 01:57:32;;;;;;;;;;;9.40;99.90;;;;;;5077577;28;19912;-82
2022/02/14 01:59:58;;;;;;;;;;;9.30;99.90;;;;;;5059367;28;19989;-82
2022/02/14 02:02:24;;;;;;;;;;;9.30;99.90;;;;;;5059779;28;19960;-82
2022/02/14 02:04:49;;;;;;;;;;;9.30;99.90;;;;;;5058221;28;19916;-81
2022/02/14 02:07:15;;;;;;;;;;;9.40;99.90;;;;;;5059616;28;19978;-83
2022/02/14 02:09:42;;;;;;;;;;;9.40;99.90;;;;;;5059576;28;19915;-84
2022/02/14 02:12:24;;;;;;;;;;;9.40;99.90;;;;;;5059175;28;19916;-80
2022/02/14 02:14:50;;;;;;;;;;;9.40;99.90;;;;;;5058816;28;19908;-83
2022/02/14 02:17:16;;;;;;;;;;;9.40;99.90;;;;;;5077333;28;19924;-83
2022/02/14 02:19:41;;;;;;;;;;;9.40;99.90;;;;;;5070983;28;19912;-84
2022/02/14 02:22:07;;;;;;;;;;;9.40;99.90;;;;;;5077161;28;19924;-80
2022/02/14 02:24:33;;;;;;;;;;;9.40;99.90;;;;;;5059167;28;20039;-81
2022/02/14 02:27:00;;;;;;;;;;;9.40;99.90;;;;;;5077423;28;19923;-80
2022/02/14 02:29:26;;;;;;;;;;;9.40;99.90;;;;;;5076519;28;20006;-83
2022/02/14 02:31:52;;;;;;;;;;;9.50;99.90;;;;;;5073035;28;19908;-83
2022/02/14 02:34:17;;;;;;;;;;;9.50;99.90;;;;;;5055194;28;19982;-79
2022/02/14 02:36:50;;;;;;;;;;;9.50;99.90;;;;;;5052521;28;19927;-83
2022/02/14 02:39:16;;;;;;;;;;;9.40;99.90;;;;;;5047327;28;19917;-82
2022/02/14 02:41:41;;;;;;;;;;;9.40;99.90;;;;;;5054270;28;20550;-80
2022/02/14 02:44:07;;;;;;;;;;;9.30;99.90;;;;;;5049320;28;20304;-81
2022/02/14 02:46:33;;;;;;;;;;;9.30;99.90;;;;;;5052417;28;19982;-80
2022/02/14 02:49:12;;;;;;;;;;;9.30;99.90;;;;;;5048071;28;19912;-80
2022/02/14 02:51:38;;;;;;;;;;;9.30;99.90;;;;;;5052512;28;20232;-80
2022/02/14 02:54:03;;;;;;;;;;;9.40;99.90;;;;;;5048588;28;20000;-82
2022/02/14 02:56:29;;;;;;;;;;;9.40;99.90;;;;;;5046240;28;20000;-83
2022/02/14 02:58:55;;;;;;;;;;;9.40;99.90;;;;;;5051613;28;19935;-81
2022/02/14 03:01:20;;;;;;;;;;;9.50;99.90;;;;;;5054259;28;19913;-83
2022/02/14 03:03:46;;;;;;;;;;;9.50;99.90;;;;;;5080858;28;19924;-83
2022/02/14 03:06:11;;;;;;;;;;;9.50;99.90;;;;;;5052099;28;19925;-83
2022/02/14 03:08:37;;;;;;;;;;;9.50;99.90;;;;;;5049496;28;19916;-81
2022/02/14 03:11:02;;;;;;;;;;;9.60;99.90;;;;;;5049966;28;19916;-81
2022/02/14 03:13:28;;;;;;;;;;;9.60;99.90;;;;;;5084386;28;20296;-81
2022/02/14 03:15:53;;;;;;;;;;;9.60;99.90;;;;;;5047540;28;20007;-82
2022/02/14 03:18:19;;;;;;;;;;;9.60;99.90;;;;;;5045574;28;20275;-80
2022/02/14 03:20:44;;;;;;;;;;;9.60;99.90;;;;;;5048922;28;20220;-82
2022/02/14 03:23:10;;;;;;;;;;;9.60;99.90;;;;;;5048830;28;20312;-82
2022/02/14 03:25:35;;;;;;;;;;;9.70;99.90;;;;;;5051466;28;19924;-82
2022/02/14 03:28:01;;;;;;;;;;;9.70;99.90;;;;;;5088295;28;20011;-81
2022/02/14 03:30:27;;;;;;;;;;;9.70;99.90;;;;;;5055617;28;20292;-81
2022/02/14 03:32:52;;;;;;;;;;;9.60;99.90;;;;;;5055784;28;19913;-81
2022/02/14 03:35:18;;;;;;;;;;;9.60;99.90;;;;;;5058635;28;19967;-82
2022/02/14 03:37:43;;;;;;;;;;;9.60;99.90;;;;;;5057808;28;19927;-79
2022/02/14 03:40:09;;;;;;;;;;;9.60;99.90;;;;;;5075490;28;20002;-82
2022/02/14 03:42:35;;;;;;;;;;;9.50;99.90;;;;;;5057723;28;19909;-81
2022/02/14 03:45:00;;;;;;;;;;;9.50;99.90;;;;;;5057887;28;19966;-80
2022/02/14 03:47:26;;;;;;;;;;;9.50;99.90;;;;;;5056963;28;19967;-80
2022/02/14 03:49:51;;;;;;;;;;;9.50;99.90;;;;;;5057809;28;19951;-82
2022/02/14 03:52:17;;;;;;;;;;;9.50;99.90;;;;;;5075028;28;20373;-82
2022/02/14 03:54:42;;;;;;;;;;;9.50;99.90;;;;;;5057793;28;19908;-82
2022/02/14 03:57:08;;;;;;;;;;;9.50;99.90;;;;;;5057152;28;20226;-79
2022/02/14 03:59:35;;;;;;;;;;;9.50;99.90;;;;;;5075329;28;19975;-80
2022/02/14 04:02:01;;;;;;;;;;;9.50;99.90;;;;;;5057023;28;19919;-80
2022/02/14 04:04:26;;;;;;;;;;;9.50;99.90;;;;;;5075152;28;19917;-81
2022/02/14 04:06:52;;;;;;;;;;;9.60;99.90;;;;;;5056225;28;20320;-81
2022/02/14 04:09:18;;;;;;;;;;;9.60;99.90;;;;;;5073890;28;19917;-82
2022/02/14 04:11:43;;;;;;;;;;;9.60;99.90;;;;;;5075061;28;20007;-80
2022/02/14 04:14:09;;;;;;;;;;;9.60;99.90;;;;;;5057421;28;19963;-80
2022/02/14 04:16:34;;;;;;;;;;;9.60;99.90;;;;;;5074981;28;19951;-81
2022/02/14 04:19:00;;;;;;;;;;;9.70;99.90;;;;;;5056849;28;20007;-81
2022/02/14 04:21:25;;;;;;;;;;;9.60;99.90;;;;;;5090409;28;20300;-80
2022/02/14 04:23:51;;;;;;;;;;;9.60;99.90;;;;;;5051385;28;19908;-81
2022/02/14 04:26:16;;;;;;;;;;;9.60;99.90;;;;;;5055083;28;19942;-81
2022/02/14 04:28:42;;;;;;;;;;;9.70;99.90;;;;;;5074470;28;19947;-81
2022/02/14 04:31:08;;;;;;;;;;;9.70;99.90;;;;;;5056514;28;19917;-82
2022/02/14 04:33:33;;;;;;;;;;;9.70;99.90;;;;;;5073101;28;20223;-82
2022/02/14 04:35:59;;;;;;;;;;;9.70;99.90;;;;;;5074840;28;19916;-80
2022/02/14 04:38:24;;;;;;;;;;;9.70;99.90;;;;;;5051481;28;19920;-81
2022/02/14 04:40:50;;;;;;;;;;;9.70;99.90;;;;;;5055039;28;19909;-82
2022/02/14 04:43:16;;;;;;;;;;;9.80;99.90;;;;;;5038421;28;19916;-81
2022/02/14 04:45:41;;;;;;;;;;;9.70;99.90;;;;;;5071655;28;19951;-82
2022/02/14 04:48:07;;;;;;;;;;;9.80;99.90;;;;;;5055350;28;20039;-82
2022/02/14 04:50:32;;;;;;;;;;;9.80;99.90;;;;;;5067250;28;19912;-82
2022/02/14 04:52:58;;;;;;;;;;;9.70;99.90;;;;;;5044250;28;19991;-81
2022/02/14 04:55:24;;;;;;;;;;;9.80;99.90;;;;;;5074792;28;19909;-82
2022/02/14 04:57:50;;;;;;;;;;;9.80;99.90;;;;;;5074559;28;19959;-81
2022/02/14 05:00:16;;;;;;;;;;;9.80;99.90;;;;;;5039044;28;19973;-81
2022/02/14 05:02:42;;;;;;;;;;;9.80;99.90;;;;;;5044037;28;19920;-82
2022/02/14 05:05:07;;;;;;;;;;;9.80;99.90;;;;;;5054603;28;19913;-80
2022/02/14 05:07:33;;;;;;;;;;;9.70;99.90;;;;;;5054826;28;19963;-81
2022/02/14 05:09:59;;;;;;;;;;;9.70;99.90;;;;;;5043008;28;20019;-81
2022/02/14 05:12:24;;;;;;;;;;;9.60;99.90;;;;;;5039682;28;19931;-83
2022/02/14 05:14:51;;;;;;;;;;;9.60;99.90;;;;;;5056417;28;19909;-81
2022/02/14 05:17:16;;;;;;;;;;;9.60;99.90;;;;;;5058005;28;19912;-81
2022/02/14 05:19:42;;;;;;;;;;;9.60;99.90;;;;;;5058496;28;19954;-82
2022/02/14 05:22:07;;;;;;;;;;;9.60;99.90;;;;;;5058403;28;19912;-83
2022/02/14 05:24:33;;;;;;;;;;;9.50;99.90;;;;;;5041616;28;19917;-82
2022/02/14 05:26:58;;;;;;;;;;;9.60;99.90;;;;;;5058354;28;19915;-81
2022/02/14 05:29:24;;;;;;;;;;;9.60;99.90;;;;;;5058290;28;19951;-81
2022/02/14 05:31:50;;;;;;;;;;;9.60;99.90;;;;;;5071290;28;19980;-81
2022/02/14 05:34:15;;;;;;;;;;;9.70;99.90;;;;;;5057950;28;19913;-81
2022/02/14 05:36:41;;;;;;;;;;;9.70;99.90;;;;;;5072472;28;19960;-81
2022/02/14 05:39:07;;;;;;;;;;;9.70;99.90;;;;;;5074096;28;20263;-81
2022/02/14 05:41:33;;;;;;;;;;;9.70;99.90;;;;;;5073859;28;20014;-85
2022/02/14 05:44:01;;;;;;;;;;;9.80;99.90;;;;;;5059459;28;19949;-81
2022/02/14 05:46:27;;;;;;;;;;;9.80;99.90;;;;;;5058714;28;19923;-80
2022/02/14 05:48:53;;;;;;;;;;;9.70;99.90;;;;;;5039886;28;20003;-82
2022/02/14 05:51:18;;;;;;;;;;;9.80;99.90;;;;;;5057337;28;20008;-80
2022/02/14 05:53:44;;;;;;;;;;;9.80;99.90;;;;;;5085148;28;19909;-82
2022/02/14 05:56:10;;;;;;;;;;;9.80;99.90;;;;;;5057466;28;19924;-81
2022/02/14 05:58:35;;;;;;;;;;;9.90;99.90;;;;;;5040980;28;19919;-85
2022/02/14 06:01:01;;;;;;;;;;;9.90;99.90;;;;;;5040018;28;20223;-83
2022/02/14 06:03:27;;;;;;;;;;;9.90;99.90;;;;;;5058497;28;19923;-81
2022/02/14 06:05:52;;;;;;;;;;;9.90;99.90;;;;;;5077966;28;19912;-81
2022/02/14 06:08:18;;;;;;;;;;;9.90;99.90;;;;;;5054842;28;20311;-81
2022/02/14 06:10:43;;;;;;;;;;;10.00;99.90;;;;;;5042521;28;19974;-81
2022/02/14 06:13:09;;;;;;;;;;;10.00;99.90;;;;;;5056861;28;19913;-83
2022/02/14 06:15:34;;;;;;;;;;;10.00;99.90;;;;;;5060951;28;19931;-79
2022/02/14 06:18:00;;;;;;;;;;;10.00;99.90;;;;;;5039715;28;19916;-84
2022/02/14 06:20:25;;;;;;;;;;;10.10;99.90;;;;;;5058117;28;19908;-81
2022/02/14 06:22:51;;;;;;;;;;;10.10;99.90;;;;;;5057266;28;20367;-82
2022/02/14 06:25:17;;;;;;;;;;;10.10;99.90;;;;;;5047381;28;20487;-82
2022/02/14 06:27:42;;;;;;;;;;;10.10;99.90;;;;;;5038924;28;19917;-80
2022/02/14 06:30:08;;;;;;;;;;;10.20;99.90;;;;;;5039481;28;19908;-83
2022/02/14 06:32:33;;;;;;;;;;;10.20;99.90;;;;;;5047174;28;19917;-81
2022/02/14 06:34:59;;;;;;;;;;;10.10;99.90;;;;;;5043676;28;19913;-81
2022/02/14 06:37:24;;;;;;;;;;;10.20;99.90;;;;;;5064622;28;20282;-81
2022/02/14 06:39:50;;;;;;;;;;;10.20;99.90;;;;;;5039142;28;20231;-81
2022/02/14 06:42:16;;;;;;;;;;;10.10;99.90;;;;;;5056608;28;19959;-82
2022/02/14 06:44:41;;;;;;;;;;;10.10;99.90;;;;;;5057316;28;19936;-79
2022/02/14 06:47:07;;;;;;;;;;;10.10;99.90;;;;;;5076333;28;19908;-80
2022/02/14 06:49:33;;;;;;;;;;;10.00;99.90;;;;;;5047314;28;19967;-81
2022/02/14 06:51:58;;;;;;;;;;;9.90;99.90;;;;;;5038912;28;19916;-81
2022/02/14 06:54:24;;;;;;;;;;;9.70;99.90;;;;;;5022483;28;19912;-82
2022/02/14 06:56:49;;;;;;;;;;;9.60;99.90;;;;;;5038748;28;19917;-83
2022/02/14 06:59:15;;;;;;;;;;;9.40;99.90;;;;;;5056548;28;19909;-82
2022/02/14 07:01:40;;;;;;;;;;;9.20;99.90;;;;;;5038721;28;20010;-81
2022/02/14 07:04:06;;;;;;;;;;;9.10;99.90;;;;;;5038647;28;19913;-81
2022/02/14 07:06:32;;;;;;;;;;;9.00;99.90;;;;;;5048164;28;19934;-80
2022/02/14 07:08:57;;;;;;;;;;;8.90;99.90;;;;;;5076094;28;19912;-80
2022/02/14 07:11:23;;;;;;;;;;;8.80;99.90;;;;;;5075881;28;19908;-81
2022/02/14 07:13:49;;;;;;;;;;;8.80;99.90;;;;;;5075909;28;19913;-80
2022/02/14 07:16:14;;;;;;;;;;;8.70;99.90;;;;;;5058513;28;19916;-79
2022/02/14 07:18:40;;;;;;;;;;;8.60;99.90;;;;;;5058965;28;19926;-81
2022/02/14 07:21:06;;;;;;;;;;;8.60;99.90;;;;;;5056063;28;19917;-81
2022/02/14 07:23:31;;;;;;;;;;;8.60;99.90;;;;;;5046158;28;19959;-80
2022/02/14 07:25:57;;;;;;;;;;;8.50;99.90;;;;;;5090188;28;19917;-81
2022/02/14 07:28:23;;;;;;;;;;;8.50;99.90;;;;;;5053987;28;20005;-79
2022/02/14 07:30:48;;;;;;;;;;;8.50;99.90;;;;;;5048500;28;19924;-81
2022/02/14 07:33:14;;;;;;;;;;;8.50;99.90;;;;;;5054149;28;19958;-79
2022/02/14 07:35:39;;;;;;;;;;;8.50;99.90;;;;;;5054556;28;20008;-79
2022/02/14 07:38:05;;;;;;;;;;;8.50;99.90;;;;;;5035966;28;19928;-79
2022/02/14 07:40:31;;;;;;;;;;;8.40;99.90;;;;;;5053494;28;19962;-79
2022/02/14 07:42:57;;;;;;;;;;;8.40;99.90;;;;;;5051058;28;19917;-79
2022/02/14 07:45:23;;;;;;;;;;;8.40;99.90;;;;;;5048925;28;20024;-79
2022/02/14 07:47:51;;;;;;;;;;;8.40;99.90;;;;;;5035194;28;19913;-79
2022/02/14 07:50:19;;;;;;;;;;;8.40;99.90;;;;;;5048578;28;19917;-79
2022/02/14 07:52:45;;;;;;;;;;;8.40;99.90;;;;;;5034659;28;20356;-78
2022/02/14 07:55:11;;;;;;;;;;;8.40;99.90;;;;;;5052627;28;20037;-80
2022/02/14 07:57:36;;;;;;;;;;;8.40;99.90;;;;;;5034640;28;19928;-79
2022/02/14 08:00:03;;;;;;;;;;;8.40;99.90;;;;;;5035887;28;20023;-80
2022/02/14 08:02:29;;;;;;;;;;;8.40;99.90;;;;;;5035306;28;19928;-78
2022/02/14 08:04:54;;;;;;;;;;;8.40;99.90;;;;;;5049599;28;19924;-79
2022/02/14 08:07:20;;;;;;;;;;;8.40;99.90;;;;;;5053035;28;19921;-80
2022/02/14 08:09:45;;;;;;;;;;;8.40;99.90;;;;;;5036116;28;19961;-80
2022/02/14 08:12:12;;;;;;;;;;;8.50;99.90;;;;;;5037113;28;19913;-79
2022/02/14 08:14:37;;;;;;;;;;;8.50;99.90;;;;;;5036278;28;19916;-80
2022/02/14 08:17:03;;;;;;;;;;;8.50;99.90;;;;;;5053611;28;20032;-79
2022/02/14 08:19:29;;;;;;;;;;;8.50;99.90;;;;;;5052749;28;20231;-80
2022/02/14 08:21:54;;;;;;;;;;;8.60;99.90;;;;;;5054684;28;20008;-80
2022/02/14 08:24:20;;;;;;;;;;;8.60;99.90;;;;;;5036478;28;20312;-79
2022/02/14 08:26:47;;;;;;;;;;;8.60;99.90;;;;;;5036656;28;19931;-80
2022/02/14 08:29:12;;;;;;;;;;;8.60;99.90;;;;;;5054533;28;19970;-80
2022/02/14 08:31:38;;;;;;;;;;;8.60;99.90;;;;;;5054036;28;19909;-80
2022/02/14 08:34:03;;;;;;;;;;;8.60;99.90;;;;;;5037122;28;19917;-79
2022/02/14 08:36:29;;;;;;;;;;;8.70;99.90;;;;;;5066888;28;19925;-79
2022/02/14 08:38:55;;;;;;;;;;;8.70;99.90;;;;;;5054430;28;19912;-79
2022/02/14 08:41:21;;;;;;;;;;;8.70;99.90;;;;;;5033619;28;19977;-79
2022/02/14 08:43:50;;;;;;;;;;;8.70;99.90;;;;;;5054818;28;19913;-80
2022/02/14 08:46:19;;;;;;;;;;;8.70;99.90;;;;;;5009717;28;19921;-80
2022/02/14 08:48:45;;;;;;;;;;;8.90;99.90;;;;;;5032677;28;19942;-79
2022/02/14 08:51:11;;;;;;;;;;;8.80;99.90;;;;;;5055667;28;19938;-80
2022/02/14 08:53:37;;;;;;;;;;;8.90;99.90;;;;;;5038773;28;19917;-79
2022/02/14 08:56:06;;;;;;;;;;;8.90;99.90;;;;;;5056873;28;19929;-80
2022/02/14 08:58:32;;;;;;;;;;;9.00;99.90;;;;;;5035718;28;19921;-79
2022/02/14 09:00:58;;;;;;;;;;;9.10;99.90;;;;;;5053450;28;19917;-80
2022/02/14 09:03:23;;;;;;;;;;;9.10;99.90;;;;;;5056018;28;20345;-80
2022/02/14 09:05:49;;;;;;;;;;;9.10;99.90;;;;;;5040987;28;20231;-80
2022/02/14 09:08:14;;;;;;;;;;;9.10;99.90;;;;;;5059270;28;19920;-79
2022/02/14 09:10:40;;;;;;;;;;;9.10;99.90;;;;;;5055416;28;19920;-79
2022/02/14 09:13:05;;;;;;;;;;;9.30;99.90;;;;;;5036633;28;19916;-79
2022/02/14 09:15:31;;;;;;;;;;;9.40;99.90;;;;;;5038898;28;19920;-80
2022/02/14 09:17:57;;;;;;;;;;;9.60;99.90;;;;;;5052742;28;19928;-80
2022/02/14 09:20:23;;;;;;;;;;;9.60;99.90;;;;;;5052530;28;19929;-81
2022/02/14 09:22:50;;;;;;;;;;;9.50;99.90;;;;;;5039023;28;19940;-80
2022/02/14 09:25:16;;;;;;;;;;;9.30;99.90;;;;;;5054624;28;19917;-80
2022/02/14 09:27:41;;;;;;;;;;;9.20;99.90;;;;;;5039503;28;19912;-79
2022/02/14 09:30:07;;;;;;;;;;;9.10;99.90;;;;;;5038909;28;19943;-80
2022/02/14 09:32:32;;;;;;;;;;;9.00;99.90;;;;;;5038838;28;19916;-80
2022/02/14 09:34:58;;;;;;;;;;;8.90;99.90;;;;;;5054597;28;20416;-80
2022/02/14 09:37:24;;;;;;;;;;;8.90;99.90;;;;;;5048853;28;19928;-79
2022/02/14 09:39:50;;;;;;;;;;;8.90;99.90;;;;;;5033654;28;19988;-79
2022/02/14 09:42:16;;;;;;;;;;;8.90;99.90;;;;;;5051234;28;20016;-79
2022/02/14 09:44:41;;;;;;;;;;;9.00;99.90;;;;;;5029368;28;20373;-79
2022/02/14 09:47:07;;;;;;;;;;;9.00;99.90;;;;;;5029016;28;19927;-78
2022/02/14 09:49:33;;;;;;;;;;;9.00;99.90;;;;;;5053182;28;19962;-79
2022/02/14 09:51:58;;;;;;;;;;;9.00;99.90;;;;;;5053377;28;19958;-80
2022/02/14 09:54:25;;;;;;;;;;;9.00;99.90;;;;;;5047291;28;19923;-78
2022/02/14 09:56:51;;;;;;;;;;;9.10;99.90;;;;;;5054308;28;20030;-81
2022/02/14 09:59:16;;;;;;;;;;;9.10;99.90;;;;;;5036970;28;20308;-78
2022/02/14 10:01:42;;;;;;;;;;;9.10;99.90;;;;;;5034019;28;19917;-79
2022/02/14 10:04:08;;;;;;;;;;;9.00;99.90;;;;;;5034767;28;19960;-80
2022/02/14 10:06:35;;;;;;;;;;;9.00;99.90;;;;;;5049599;28;20304;-78
2022/02/14 10:09:05;;;;;;;;;;;8.90;99.90;;;;;;5031751;28;19913;-80
2022/02/14 10:11:32;;;;;;;;;;;8.80;99.90;;;;;;5048265;28;19923;-81
2022/02/14 10:14:11;;;;;;;;;;;8.80;99.90;;;;;;5047492;28;19921;-79
2022/02/14 10:16:37;;;;;;;;;;;8.80;99.90;;;;;;5029617;28;19932;-81
2022/02/14 10:19:13;;;;;;;;;;;8.90;99.90;;;;;;5034466;28;20232;-79
2022/02/14 10:21:38;;;;;;;;;;;9.00;99.90;;;;;;5049169;28;20342;-79
2022/02/14 10:24:04;;;;;;;;;;;9.00;99.90;;;;;;5048064;28;19913;-81
2022/02/14 10:26:40;;;;;;;;;;;9.10;99.90;;;;;;5029280;28;19967;-81
2022/02/14 10:29:08;;;;;;;;;;;9.20;99.90;;;;;;5046390;28;19999;-80
2022/02/14 10:31:44;;;;;;;;;;;9.40;99.90;;;;;;5042335;28;19940;-80
2022/02/14 10:34:10;;;;;;;;;;;9.50;99.90;;;;;;5055100;28;19913;-82
2022/02/14 10:36:37;;;;;;;;;;;9.50;99.90;;;;;;5049252;28;20000;-81
2022/02/14 10:39:07;;;;;;;;;;;9.50;99.90;;;;;;5055354;28;19917;-79
2022/02/14 10:41:32;;;;;;;;;;;9.40;99.90;;;;;;5051848;28;19916;-81
2022/02/14 10:44:05;;;;;;;;;;;9.40;99.90;;;;;;5051650;28;19927;-79
2022/02/14 10:46:32;;;;;;;;;;;9.40;99.90;;;;;;5047294;28;19912;-83
2022/02/14 10:48:59;;;;;;;;;;;9.40;99.90;;;;;;5052902;28;19927;-80
2022/02/14 10:51:25;;;;;;;;;;;9.40;99.90;;;;;;5051406;28;20392;-81
2022/02/14 10:53:54;;;;;;;;;;;9.50;99.90;;;;;;5047703;28;20008;-81
2022/02/14 10:56:19;;;;;;;;;;;9.50;99.90;;;;;;5050396;28;19920;-82
2022/02/14 10:58:46;;;;;;;;;;;9.50;99.90;;;;;;5052654;28;20180;-80
2022/02/14 11:01:12;;;;;;;;;;;9.70;99.90;;;;;;5048204;28;20259;-82
2022/02/14 11:03:44;;;;;;;;;;;9.80;99.90;;;;;;5039683;28;19921;-81
2022/02/14 11:06:11;;;;;;;;;;;9.80;99.90;;;;;;5048625;28;19913;-80
2022/02/14 11:08:38;;;;;;;;;;;9.70;99.90;;;;;;5047145;28;19913;-80
2022/02/14 11:11:04;;;;;;;;;;;9.70;99.90;;;;;;5049149;28;19917;-80
2022/02/14 11:13:31;;;;;;;;;;;9.60;99.90;;;;;;5047565;28;20331;-82
2022/02/14 11:15:58;;;;;;;;;;;9.50;99.90;;;;;;5049784;28;20327;-80
2022/02/14 11:18:26;;;;;;;;;;;9.50;99.90;;;;;;5047220;28;19928;-81
2022/02/14 11:20:52;;;;;;;;;;;9.40;99.90;;;;;;5048894;28;19913;-80
2022/02/14 11:23:18;;;;;;;;;;;9.40;99.90;;;;;;5045854;28;19928;-80
2022/02/14 11:26:02;;;;;;;;;;;9.40;99.90;;;;;;5048092;28;19917;-81
2022/02/14 11:28:37;;;;;;;;;;;9.40;99.90;;;;;;5041968;28;19917;-81
2022/02/14 11:31:08;;;;;;;;;;;9.40;99.90;;;;;;5040637;28;19952;-80
2022/02/14 11:33:35;;;;;;;;;;;9.40;99.90;;;;;;5043436;28;19921;-81
2022/02/14 11:36:02;;;;;;;;;;;9.40;99.90;;;;;;5045182;28;19925;-81
2022/02/14 11:38:47;;;;;;;;;;;9.50;99.90;;;;;;5047658;28;20319;-80
2022/02/14 11:41:21;;;;;;;;;;;9.60;99.90;;;;;;5045115;28;19955;-83
2022/02/14 11:43:47;;;;;;;;;;;9.80;99.90;;;;;;5064965;28;19925;-81
2022/02/14 11:46:20;;;;;;;;;;;10.10;99.90;;;;;;5031552;28;19971;-84
2022/02/14 11:49:00;;;;;;;;;;;10.30;99.90;;;;;;5067047;28;19916;-85
2022/02/14 11:51:35;;;;;;;;;;;10.40;99.90;;;;;;5052182;28;19939;-82
2022/02/14 11:54:03;;;;;;;;;;;10.50;99.90;;;;;;5067570;28;19917;-83
2022/02/14 11:56:30;;;;;;;;;;;10.80;99.90;;;;;;5046320;28;19917;-82
2022/02/14 11:59:11;;;;;;;;;;;10.90;99.90;;;;;;5067450;28;19916;-82
2022/02/14 12:01:55;;;;;;;;;;;10.70;99.90;;;;;;5049331;28;19921;-82
2022/02/14 12:04:36;;;;;;;;;;;10.90;99.90;;;;;;5061984;28;19916;-82
2022/02/14 12:07:17;;;;;;;;;;;11.00;99.90;;;;;;5069339;28;19917;-81
2022/02/14 12:10:01;;;;;;;;;;;11.00;99.90;;;;;;5049495;28;19924;-81
2022/02/14 12:12:41;;;;;;;;;;;10.90;99.90;;;;;;5057375;28;19917;-81
2022/02/14 12:20:49;;;;;;;;;;;10.90;99.90;;;;;;5067589;28;19924;-80
2022/02/14 12:23:25;;;;;;;;;;;11.20;99.90;;;;;;5068489;28;19920;-80
2022/02/14 12:25:51;;;;;;;;;;;11.30;99.90;;;;;;5033881;28;19965;-83
2022/02/14 12:28:19;;;;;;;;;;;11.20;99.90;;;;;;5063395;28;20606;-83
2022/02/14 12:30:45;;;;;;;;;;;10.80;99.90;;;;;;5046630;28;19942;-81
2022/02/14 12:33:12;;;;;;;;;;;10.80;99.90;;;;;;5068032;28;19917;-83
2022/02/14 12:35:39;;;;;;;;;;;10.80;99.90;;;;;;5067338;28;19931;-83
2022/02/14 12:38:05;;;;;;;;;;;10.90;99.90;;;;;;5053481;28;20226;-80
2022/02/14 12:40:51;;;;;;;;;;;10.80;99.90;;;;;;5071775;28;19917;-80
2022/02/14 12:43:27;;;;;;;;;;;10.60;99.90;;;;;;5052252;28;19917;-81
2022/02/14 12:45:54;;;;;;;;;;;10.30;99.90;;;;;;5072274;28;19913;-81
2022/02/14 12:48:27;;;;;;;;;;;10.40;99.90;;;;;;5071249;28;19924;-81
2022/02/14 12:50:52;;;;;;;;;;;10.40;99.90;;;;;;5071327;28;20291;-81
2022/02/14 12:53:18;;;;;;;;;;;10.30;99.90;;;;;;5068501;28;19913;-80
2022/02/14 12:55:44;;;;;;;;;;;10.30;99.90;;;;;;5066764;28;19991;-81
2022/02/14 12:58:11;;;;;;;;;;;10.30;99.90;;;;;;5065750;28;20273;-82
2022/02/14 13:00:42;;;;;;;;;;;10.30;99.90;;;;;;5046431;28;19928;-81
2022/02/14 13:03:12;;;;;;;;;;;10.30;99.90;;;;;;5067858;28;19921;-80
2022/02/14 13:05:37;;;;;;;;;;;10.70;99.90;;;;;;5049743;28;19921;-80
2022/02/14 13:08:19;;;;;;;;;;;10.80;99.90;;;;;;5062918;28;19924;-81
2022/02/14 13:10:50;;;;;;;;;;;10.90;99.90;;;;;;5064436;28;19924;-80
2022/02/14 13:13:29;;;;;;;;;;;10.90;99.90;;;;;;5064388;28;19917;-80
2022/02/14 13:15:58;;;;;;;;;;;11.10;99.90;;;;;;5067938;28;19994;-82
2022/02/14 13:18:35;;;;;;;;;;;11.20;99.90;;;;;;5068629;28;19949;-83
2022/02/14 13:21:01;;;;;;;;;;;11.20;99.90;;;;;;5055813;28;19958;-80
2022/02/14 13:23:26;;;;;;;;;;;11.20;99.90;;;;;;5068077;28;19972;-82
2022/02/14 13:25:53;;;;;;;;;;;11.30;99.90;;;;;;5065635;28;19974;-81
2022/02/14 13:28:19;;;;;;;;;;;11.20;99.90;;;;;;5049155;28;19917;-80
2022/02/14 13:30:45;;;;;;;;;;;11.30;99.90;;;;;;5061529;28;19916;-82
2022/02/14 13:33:18;;;;;;;;;;;11.30;99.90;;;;;;5045603;28;19920;-81
2022/02/14 13:35:43;;;;;;;;;;;11.30;99.90;;;;;;5060862;28;19929;-82
2022/02/14 13:38:09;;;;;;;;;;;11.20;99.90;;;;;;5052409;28;19928;-80
2022/02/14 13:40:37;;;;;;;;;;;11.20;99.90;;;;;;5041714;28;19913;-85
2022/02/14 13:43:04;;;;;;;;;;;11.10;99.90;;;;;;5061696;28;19941;-79
2022/02/14 13:45:42;;;;;;;;;;;11.00;99.90;;;;;;5066187;28;19917;-82
2022/02/14 13:48:14;;;;;;;;;;;10.90;99.90;;;;;;5052911;28;19946;-79
2022/02/14 13:50:40;;;;;;;;;;;10.80;99.90;;;;;;5040994;28;19964;-80
2022/02/14 13:53:06;;;;;;;;;;;10.60;99.90;;;;;;5048690;28;19920;-83
2022/02/14 13:55:33;;;;;;;;;;;10.60;99.90;;;;;;5054944;28;19913;-83
2022/02/14 13:57:59;;;;;;;;;;;10.60;99.90;;;;;;5054418;28;19928;-81
2022/02/14 14:00:34;;;;;;;;;;;10.60;99.90;;;;;;5055193;28;19912;-81
2022/02/14 14:03:00;;;;;;;;;;;10.60;99.90;;;;;;5032832;28;19917;-81
2022/02/14 14:05:26;;;;;;;;;;;10.50;99.90;;;;;;5043901;28;19921;-80
2022/02/14 14:07:51;;;;;;;;;;;10.60;99.90;;;;;;5057571;28;20197;-81
2022/02/14 14:10:18;;;;;;;;;;;10.60;99.90;;;;;;5078571;28;20421;-82
2022/02/14 14:12:45;;;;;;;;;;;10.60;99.90;;;;;;5062819;28;19923;-80
2022/02/14 14:15:10;;;;;;;;;;;10.50;99.90;;;;;;5046229;28;20071;-83
2022/02/14 14:17:36;;;;;;;;;;;10.40;99.90;;;;;;5060106;28;20002;-81
2022/02/14 14:20:02;;;;;;;;;;;10.40;99.90;;;;;;5044953;28;19919;-82
2022/02/14 14:22:31;;;;;;;;;;;10.40;99.90;;;;;;5041806;28;19983;-85
2022/02/14 14:24:59;;;;;;;;;;;10.30;99.90;;;;;;5046766;28;19978;-82
2022/02/14 14:27:26;;;;;;;;;;;10.20;99.90;;;;;;5077786;28;19919;-79
2022/02/14 14:29:51;;;;;;;;;;;10.20;99.90;;;;;;5054100;28;19928;-81